sensor_id;sensor_type;location;lat;lon;timestamp;P1;durP1;ratioP1;P2;durP2;ratioP2
7675;SDS011;3880;51.464;-2.566;2022-10-15T00:00:52;7.07;;;3.97;;
7675;SDS011;3880;51.464;-2.566;2022-10-15T00:03:19;5.93;;;3.50;;
7675;SDS011;3880;51.464;-2.566;2022-10-15T00:05:46;12.67;;;5.00;;
7675;SDS011;3880;51.464;-2.566;2022-10-15T00:08:13;8.80;;;3.20;;
7675;SDS011;3880;51.464;-2.566;2022-10-15T00:10:40;7.67;;;4.13;;
7675;SDS011;3880;51.464;-2.566;2022-10-15T00:13:08;12.40;;;3.57;;
7675;SDS011;3880;51.464;-2.566;2022-10-15T00:15:35;10.13;;;3.97;;
7675;SDS011;3880;51.464;-2.566;2022-10-15T00:18:02;6.87;;;3.53;;
7675;SDS011;3880;51.464;-2.566;2022-10-15T00:20:29;8.33;;;4.10;;
7675;SDS011;3880;51.464;-2.566;2022-10-15T00:22:56;11.90;;;3.60;;
7675;SDS011;3880;51.464;-2.566;2022-10-15T00:25:23;8.53;;;3.27;;
7675;SDS011;3880;51.464;-2.566;2022-10-15T00:27:50;7.33;;;3.60;;
7675;SDS011;3880;51.464;-2.566;2022-10-15T00:30:19;18.47;;;4.13;;
7675;SDS011;3880;51.464;-2.566;2022-10-15T00:32:46;10.43;;;4.73;;
7675;SDS011;3880;51.464;-2.566;2022-10-15T00:35:15;7.27;;;3.40;;
7675;SDS011;3880;51.464;-2.566;2022-10-15T00:37:42;9.13;;;4.63;;
7675;SDS011;3880;51.464;-2.566;2022-10-15T00:40:10;9.70;;;3.50;;
7675;SDS011;3880;51.464;-2.566;2022-10-15T00:42:39;9.43;;;3.80;;
7675;SDS011;3880;51.464;-2.566;2022-10-15T00:45:07;7.27;;;3.63;;
7675;SDS011;3880;51.464;-2.566;2022-10-15T00:47:38;13.00;;;4.37;;
7675;SDS011;3880;51.464;-2.566;2022-10-15T00:50:06;7.83;;;3.13;;
7675;SDS011;3880;51.464;-2.566;2022-10-15T00:52:40;9.80;;;3.63;;
7675;SDS011;3880;51.464;-2.566;2022-10-15T00:55:13;9.67;;;3.37;;
7675;SDS011;3880;51.464;-2.566;2022-10-15T00:57:43;6.50;;;3.73;;
7675;SDS011;3880;51.464;-2.566;2022-10-15T01:00:12;8.87;;;3.97;;
7675;SDS011;3880;51.464;-2.566;2022-10-15T01:02:42;16.33;;;4.63;;
7675;SDS011;3880;51.464;-2.566;2022-10-15T01:05:10;13.83;;;4.20;;
7675;SDS011;3880;51.464;-2.566;2022-10-15T01:07:38;8.00;;;3.37;;
7675;SDS011;3880;51.464;-2.566;2022-10-15T01:10:05;10.57;;;3.77;;
7675;SDS011;3880;51.464;-2.566;2022-10-15T01:12:39;12.70;;;3.87;;
7675;SDS011;3880;51.464;-2.566;2022-10-15T01:15:24;10.83;;;4.00;;
7675;SDS011;3880;51.464;-2.566;2022-10-15T01:17:57;5.97;;;2.90;;
7675;SDS011;3880;51.464;-2.566;2022-10-15T01:26:39;7.47;;;3.73;;
7675;SDS011;3880;51.464;-2.566;2022-10-15T01:29:30;10.47;;;4.77;;
7675;SDS011;3880;51.464;-2.566;2022-10-15T01:32:11;7.37;;;2.67;;
7675;SDS011;3880;51.464;-2.566;2022-10-15T01:34:44;9.73;;;3.20;;
7675;SDS011;3880;51.464;-2.566;2022-10-15T01:37:17;14.37;;;4.37;;
7675;SDS011;3880;51.464;-2.566;2022-10-15T01:39:49;8.90;;;3.30;;
7675;SDS011;3880;51.464;-2.566;2022-10-15T01:42:22;7.83;;;3.13;;
7675;SDS011;3880;51.464;-2.566;2022-10-15T01:44:54;9.17;;;3.77;;
7675;SDS011;3880;51.464;-2.566;2022-10-15T01:47:28;13.37;;;3.20;;
7675;SDS011;3880;51.464;-2.566;2022-10-15T01:49:57;6.50;;;2.90;;
7675;SDS011;3880;51.464;-2.566;2022-10-15T01:52:26;8.33;;;3.37;;
7675;SDS011;3880;51.464;-2.566;2022-10-15T01:54:56;10.17;;;3.43;;
7675;SDS011;3880;51.464;-2.566;2022-10-15T01:57:24;7.70;;;3.30;;
7675;SDS011;3880;51.464;-2.566;2022-10-15T01:59:54;13.80;;;3.63;;
7675;SDS011;3880;51.464;-2.566;2022-10-15T02:02:22;9.90;;;3.43;;
7675;SDS011;3880;51.464;-2.566;2022-10-15T02:04:50;7.23;;;2.93;;
7675;SDS011;3880;51.464;-2.566;2022-10-15T02:07:19;8.40;;;3.17;;
7675;SDS011;3880;51.464;-2.566;2022-10-15T02:09:53;6.80;;;3.07;;
7675;SDS011;3880;51.464;-2.566;2022-10-15T02:12:30;7.80;;;3.83;;
7675;SDS011;3880;51.464;-2.566;2022-10-15T02:15:07;14.17;;;3.30;;
7675;SDS011;3880;51.464;-2.566;2022-10-15T02:17:42;10.90;;;3.17;;
7675;SDS011;3880;51.464;-2.566;2022-10-15T02:20:17;13.07;;;3.57;;
7675;SDS011;3880;51.464;-2.566;2022-10-15T02:22:49;6.53;;;2.73;;
7675;SDS011;3880;51.464;-2.566;2022-10-15T02:25:22;10.10;;;3.83;;
7675;SDS011;3880;51.464;-2.566;2022-10-15T02:27:52;5.07;;;2.67;;
7675;SDS011;3880;51.464;-2.566;2022-10-15T02:30:21;4.90;;;3.23;;
7675;SDS011;3880;51.464;-2.566;2022-10-15T02:32:50;3.90;;;2.23;;
7675;SDS011;3880;51.464;-2.566;2022-10-15T02:35:23;3.77;;;3.07;;
7675;SDS011;3880;51.464;-2.566;2022-10-15T02:37:51;14.63;;;3.90;;
7675;SDS011;3880;51.464;-2.566;2022-10-15T02:40:20;4.90;;;3.20;;
7675;SDS011;3880;51.464;-2.566;2022-10-15T02:42:51;8.13;;;3.20;;
7675;SDS011;3880;51.464;-2.566;2022-10-15T02:45:18;6.40;;;2.63;;
7675;SDS011;3880;51.464;-2.566;2022-10-15T02:47:45;6.40;;;3.27;;
7675;SDS011;3880;51.464;-2.566;2022-10-15T02:50:13;7.67;;;2.87;;
7675;SDS011;3880;51.464;-2.566;2022-10-15T02:52:41;8.50;;;3.40;;
7675;SDS011;3880;51.464;-2.566;2022-10-15T02:55:08;3.43;;;2.53;;
7675;SDS011;3880;51.464;-2.566;2022-10-15T02:57:35;6.20;;;2.60;;
7675;SDS011;3880;51.464;-2.566;2022-10-15T03:00:03;6.77;;;2.43;;
7675;SDS011;3880;51.464;-2.566;2022-10-15T03:02:31;7.87;;;2.63;;
7675;SDS011;3880;51.464;-2.566;2022-10-15T03:04:58;5.80;;;2.30;;
7675;SDS011;3880;51.464;-2.566;2022-10-15T03:07:25;11.63;;;2.93;;
7675;SDS011;3880;51.464;-2.566;2022-10-15T03:09:54;4.10;;;2.40;;
7675;SDS011;3880;51.464;-2.566;2022-10-15T03:12:21;4.20;;;2.13;;
7675;SDS011;3880;51.464;-2.566;2022-10-15T03:14:50;6.50;;;3.20;;
7675;SDS011;3880;51.464;-2.566;2022-10-15T03:17:17;6.50;;;2.23;;
7675;SDS011;3880;51.464;-2.566;2022-10-15T03:19:44;9.70;;;2.90;;
7675;SDS011;3880;51.464;-2.566;2022-10-15T03:22:11;10.23;;;3.63;;
7675;SDS011;3880;51.464;-2.566;2022-10-15T03:24:38;5.80;;;2.40;;
7675;SDS011;3880;51.464;-2.566;2022-10-15T03:27:07;7.97;;;3.23;;
7675;SDS011;3880;51.464;-2.566;2022-10-15T03:29:34;8.90;;;3.07;;
7675;SDS011;3880;51.464;-2.566;2022-10-15T03:32:01;8.27;;;3.80;;
7675;SDS011;3880;51.464;-2.566;2022-10-15T03:34:28;4.80;;;2.40;;
7675;SDS011;3880;51.464;-2.566;2022-10-15T03:36:55;7.07;;;2.77;;
7675;SDS011;3880;51.464;-2.566;2022-10-15T03:39:22;12.13;;;3.23;;
7675;SDS011;3880;51.464;-2.566;2022-10-15T03:41:51;6.90;;;2.90;;
7675;SDS011;3880;51.464;-2.566;2022-10-15T03:44:22;8.90;;;3.30;;
7675;SDS011;3880;51.464;-2.566;2022-10-15T03:46:50;4.73;;;3.20;;
7675;SDS011;3880;51.464;-2.566;2022-10-15T03:49:17;5.57;;;3.03;;
7675;SDS011;3880;51.464;-2.566;2022-10-15T03:51:55;10.73;;;3.30;;
7675;SDS011;3880;51.464;-2.566;2022-10-15T03:54:38;11.13;;;3.60;;
7675;SDS011;3880;51.464;-2.566;2022-10-15T03:57:30;7.97;;;3.50;;
7675;SDS011;3880;51.464;-2.566;2022-10-15T04:00:14;7.03;;;3.80;;
7675;SDS011;3880;51.464;-2.566;2022-10-15T04:03:02;6.67;;;3.57;;
7675;SDS011;3880;51.464;-2.566;2022-10-15T04:05:30;4.10;;;3.10;;
7675;SDS011;3880;51.464;-2.566;2022-10-15T04:07:58;2.87;;;2.67;;
7675;SDS011;3880;51.464;-2.566;2022-10-15T04:10:26;7.97;;;3.33;;
7675;SDS011;3880;51.464;-2.566;2022-10-15T04:12:54;7.73;;;2.93;;
7675;SDS011;3880;51.464;-2.566;2022-10-15T04:15:23;3.53;;;2.80;;
7675;SDS011;3880;51.464;-2.566;2022-10-15T04:17:52;5.23;;;3.20;;
7675;SDS011;3880;51.464;-2.566;2022-10-15T04:20:30;3.83;;;2.40;;
7675;SDS011;3880;51.464;-2.566;2022-10-15T04:23:29;4.40;;;2.40;;
7675;SDS011;3880;51.464;-2.566;2022-10-15T04:25:57;7.60;;;3.03;;
7675;SDS011;3880;51.464;-2.566;2022-10-15T04:28:25;10.73;;;2.73;;
7675;SDS011;3880;51.464;-2.566;2022-10-15T04:30:59;10.87;;;2.77;;
7675;SDS011;3880;51.464;-2.566;2022-10-15T04:33:27;4.13;;;2.87;;
7675;SDS011;3880;51.464;-2.566;2022-10-15T04:35:59;5.87;;;2.40;;
7675;SDS011;3880;51.464;-2.566;2022-10-15T04:38:27;3.47;;;2.97;;
7675;SDS011;3880;51.464;-2.566;2022-10-15T04:40:58;3.20;;;2.37;;
7675;SDS011;3880;51.464;-2.566;2022-10-15T04:43:27;6.07;;;4.33;;
7675;SDS011;3880;51.464;-2.566;2022-10-15T04:45:55;6.47;;;2.90;;
7675;SDS011;3880;51.464;-2.566;2022-10-15T04:48:26;6.47;;;2.93;;
7675;SDS011;3880;51.464;-2.566;2022-10-15T04:51:04;4.97;;;3.30;;
7675;SDS011;3880;51.464;-2.566;2022-10-15T04:53:35;5.90;;;2.40;;
7675;SDS011;3880;51.464;-2.566;2022-10-15T04:56:13;3.77;;;2.97;;
7675;SDS011;3880;51.464;-2.566;2022-10-15T04:58:44;4.83;;;2.87;;
7675;SDS011;3880;51.464;-2.566;2022-10-15T05:01:20;2.93;;;2.67;;
7675;SDS011;3880;51.464;-2.566;2022-10-15T05:03:58;6.97;;;3.30;;
7675;SDS011;3880;51.464;-2.566;2022-10-15T05:06:36;6.57;;;2.93;;
7675;SDS011;3880;51.464;-2.566;2022-10-15T05:09:04;4.53;;;2.80;;
7675;SDS011;3880;51.464;-2.566;2022-10-15T05:11:41;4.47;;;2.43;;
7675;SDS011;3880;51.464;-2.566;2022-10-15T05:14:08;3.30;;;2.20;;
7675;SDS011;3880;51.464;-2.566;2022-10-15T05:16:36;3.43;;;2.10;;
7675;SDS011;3880;51.464;-2.566;2022-10-15T05:19:05;2.47;;;2.00;;
7675;SDS011;3880;51.464;-2.566;2022-10-15T05:21:34;3.43;;;2.10;;
7675;SDS011;3880;51.464;-2.566;2022-10-15T05:24:02;4.10;;;1.90;;
7675;SDS011;3880;51.464;-2.566;2022-10-15T05:26:30;2.27;;;2.07;;
7675;SDS011;3880;51.464;-2.566;2022-10-15T05:28:58;2.73;;;1.80;;
7675;SDS011;3880;51.464;-2.566;2022-10-15T05:31:26;1.83;;;1.73;;
7675;SDS011;3880;51.464;-2.566;2022-10-15T05:33:55;3.27;;;1.80;;
7675;SDS011;3880;51.464;-2.566;2022-10-15T05:36:25;4.93;;;1.80;;
7675;SDS011;3880;51.464;-2.566;2022-10-15T05:38:55;2.77;;;1.37;;
7675;SDS011;3880;51.464;-2.566;2022-10-15T05:41:29;1.43;;;1.30;;
7675;SDS011;3880;51.464;-2.566;2022-10-15T05:43:59;6.70;;;1.97;;
7675;SDS011;3880;51.464;-2.566;2022-10-15T05:46:44;4.23;;;2.13;;
7675;SDS011;3880;51.464;-2.566;2022-10-15T05:49:46;3.97;;;1.90;;
7675;SDS011;3880;51.464;-2.566;2022-10-15T05:52:39;1.83;;;1.30;;
7675;SDS011;3880;51.464;-2.566;2022-10-15T05:55:23;3.67;;;1.80;;
7675;SDS011;3880;51.464;-2.566;2022-10-15T05:58:00;2.63;;;1.73;;
7675;SDS011;3880;51.464;-2.566;2022-10-15T06:00:36;3.00;;;1.63;;
7675;SDS011;3880;51.464;-2.566;2022-10-15T06:03:15;3.87;;;1.50;;
7675;SDS011;3880;51.464;-2.566;2022-10-15T06:05:53;2.80;;;1.40;;
7675;SDS011;3880;51.464;-2.566;2022-10-15T06:08:28;3.70;;;1.87;;
7675;SDS011;3880;51.464;-2.566;2022-10-15T06:11:00;5.10;;;1.70;;
7675;SDS011;3880;51.464;-2.566;2022-10-15T06:13:29;2.57;;;1.40;;
7675;SDS011;3880;51.464;-2.566;2022-10-15T06:15:57;2.80;;;1.40;;
7675;SDS011;3880;51.464;-2.566;2022-10-15T06:18:28;7.63;;;1.50;;
7675;SDS011;3880;51.464;-2.566;2022-10-15T06:20:58;3.50;;;1.50;;
7675;SDS011;3880;51.464;-2.566;2022-10-15T06:23:28;2.67;;;1.40;;
7675;SDS011;3880;51.464;-2.566;2022-10-15T06:25:55;2.20;;;0.97;;
7675;SDS011;3880;51.464;-2.566;2022-10-15T06:28:30;1.27;;;1.07;;
7675;SDS011;3880;51.464;-2.566;2022-10-15T06:40:01;4.27;;;1.30;;
7675;SDS011;3880;51.464;-2.566;2022-10-15T06:42:29;1.33;;;1.00;;
7675;SDS011;3880;51.464;-2.566;2022-10-15T06:45:00;2.00;;;1.43;;
7675;SDS011;3880;51.464;-2.566;2022-10-15T06:47:38;3.83;;;1.33;;
7675;SDS011;3880;51.464;-2.566;2022-10-15T06:50:20;1.43;;;1.30;;
7675;SDS011;3880;51.464;-2.566;2022-10-15T06:52:47;3.30;;;2.40;;
7675;SDS011;3880;51.464;-2.566;2022-10-15T06:55:16;4.27;;;1.27;;
7675;SDS011;3880;51.464;-2.566;2022-10-15T06:57:43;1.97;;;1.60;;
7675;SDS011;3880;51.464;-2.566;2022-10-15T07:00:11;2.20;;;1.47;;
7675;SDS011;3880;51.464;-2.566;2022-10-15T07:02:39;2.17;;;1.90;;
7675;SDS011;3880;51.464;-2.566;2022-10-15T07:05:07;1.50;;;1.10;;
7675;SDS011;3880;51.464;-2.566;2022-10-15T07:07:35;2.60;;;1.37;;
7675;SDS011;3880;51.464;-2.566;2022-10-15T07:10:02;5.53;;;1.27;;
7675;SDS011;3880;51.464;-2.566;2022-10-15T07:12:32;5.93;;;2.47;;
7675;SDS011;3880;51.464;-2.566;2022-10-15T07:15:05;3.03;;;1.50;;
7675;SDS011;3880;51.464;-2.566;2022-10-15T07:17:33;3.37;;;1.00;;
7675;SDS011;3880;51.464;-2.566;2022-10-15T07:20:03;1.30;;;1.20;;
7675;SDS011;3880;51.464;-2.566;2022-10-15T07:22:30;2.87;;;1.20;;
7675;SDS011;3880;51.464;-2.566;2022-10-15T07:24:58;1.47;;;1.03;;
7675;SDS011;3880;51.464;-2.566;2022-10-15T07:27:25;1.70;;;1.07;;
7675;SDS011;3880;51.464;-2.566;2022-10-15T07:29:54;7.00;;;3.17;;
7675;SDS011;3880;51.464;-2.566;2022-10-15T07:32:21;6.67;;;1.80;;
7675;SDS011;3880;51.464;-2.566;2022-10-15T07:34:49;2.10;;;1.13;;
7675;SDS011;3880;51.464;-2.566;2022-10-15T07:37:16;3.53;;;1.20;;
7675;SDS011;3880;51.464;-2.566;2022-10-15T07:39:43;2.00;;;1.30;;
7675;SDS011;3880;51.464;-2.566;2022-10-15T07:42:11;5.37;;;3.27;;
7675;SDS011;3880;51.464;-2.566;2022-10-15T07:44:38;7.47;;;3.53;;
7675;SDS011;3880;51.464;-2.566;2022-10-15T07:47:06;6.20;;;2.63;;
7675;SDS011;3880;51.464;-2.566;2022-10-15T07:49:33;3.77;;;1.50;;
7675;SDS011;3880;51.464;-2.566;2022-10-15T07:52:03;3.50;;;2.37;;
7675;SDS011;3880;51.464;-2.566;2022-10-15T07:54:34;2.70;;;1.60;;
7675;SDS011;3880;51.464;-2.566;2022-10-15T07:57:02;1.83;;;1.40;;
7675;SDS011;3880;51.464;-2.566;2022-10-15T07:59:31;4.03;;;1.70;;
7675;SDS011;3880;51.464;-2.566;2022-10-15T08:02:01;5.07;;;3.03;;
7675;SDS011;3880;51.464;-2.566;2022-10-15T08:04:30;6.27;;;2.77;;
7675;SDS011;3880;51.464;-2.566;2022-10-15T08:06:59;2.23;;;1.73;;
7675;SDS011;3880;51.464;-2.566;2022-10-15T08:09:26;3.90;;;1.37;;
7675;SDS011;3880;51.464;-2.566;2022-10-15T08:11:56;7.47;;;1.77;;
7675;SDS011;3880;51.464;-2.566;2022-10-15T08:14:23;4.73;;;2.53;;
7675;SDS011;3880;51.464;-2.566;2022-10-15T08:16:51;5.63;;;2.50;;
7675;SDS011;3880;51.464;-2.566;2022-10-15T08:19:19;2.20;;;2.00;;
7675;SDS011;3880;51.464;-2.566;2022-10-15T08:21:49;1.90;;;1.80;;
7675;SDS011;3880;51.464;-2.566;2022-10-15T08:24:29;6.47;;;2.97;;
7675;SDS011;3880;51.464;-2.566;2022-10-15T08:27:02;3.53;;;1.87;;
7675;SDS011;3880;51.464;-2.566;2022-10-15T08:29:29;5.83;;;2.03;;
7675;SDS011;3880;51.464;-2.566;2022-10-15T08:31:56;3.83;;;2.47;;
7675;SDS011;3880;51.464;-2.566;2022-10-15T08:34:23;6.90;;;1.97;;
7675;SDS011;3880;51.464;-2.566;2022-10-15T08:36:55;4.40;;;2.07;;
7675;SDS011;3880;51.464;-2.566;2022-10-15T08:39:22;2.80;;;1.70;;
7675;SDS011;3880;51.464;-2.566;2022-10-15T08:41:50;1.57;;;1.13;;
7675;SDS011;3880;51.464;-2.566;2022-10-15T08:44:24;7.70;;;3.20;;
7675;SDS011;3880;51.464;-2.566;2022-10-15T08:46:53;6.17;;;3.20;;
7675;SDS011;3880;51.464;-2.566;2022-10-15T08:49:27;3.77;;;1.93;;
7675;SDS011;3880;51.464;-2.566;2022-10-15T08:52:05;6.83;;;2.77;;
7675;SDS011;3880;51.464;-2.566;2022-10-15T08:54:40;5.37;;;2.70;;
7675;SDS011;3880;51.464;-2.566;2022-10-15T08:57:09;4.80;;;2.50;;
7675;SDS011;3880;51.464;-2.566;2022-10-15T08:59:46;3.77;;;1.40;;
7675;SDS011;3880;51.464;-2.566;2022-10-15T09:02:20;6.80;;;2.63;;
7675;SDS011;3880;51.464;-2.566;2022-10-15T09:04:52;9.97;;;3.63;;
7675;SDS011;3880;51.464;-2.566;2022-10-15T09:07:29;1.83;;;1.40;;
7675;SDS011;3880;51.464;-2.566;2022-10-15T09:10:10;5.33;;;1.67;;
7675;SDS011;3880;51.464;-2.566;2022-10-15T09:12:52;5.97;;;1.60;;
7675;SDS011;3880;51.464;-2.566;2022-10-15T09:15:31;4.33;;;1.80;;
7675;SDS011;3880;51.464;-2.566;2022-10-15T09:18:07;4.97;;;1.33;;
7675;SDS011;3880;51.464;-2.566;2022-10-15T09:20:47;4.73;;;1.30;;
7675;SDS011;3880;51.464;-2.566;2022-10-15T09:23:25;7.80;;;1.87;;
7675;SDS011;3880;51.464;-2.566;2022-10-15T09:26:05;5.50;;;2.17;;
7675;SDS011;3880;51.464;-2.566;2022-10-15T09:28:43;6.13;;;1.60;;
7675;SDS011;3880;51.464;-2.566;2022-10-15T09:31:22;5.00;;;1.90;;
7675;SDS011;3880;51.464;-2.566;2022-10-15T09:33:58;7.77;;;2.33;;
7675;SDS011;3880;51.464;-2.566;2022-10-15T09:36:33;4.13;;;1.50;;
7675;SDS011;3880;51.464;-2.566;2022-10-15T09:39:14;12.03;;;2.13;;
7675;SDS011;3880;51.464;-2.566;2022-10-15T09:42:00;8.03;;;2.27;;
7675;SDS011;3880;51.464;-2.566;2022-10-15T09:44:37;7.87;;;2.53;;
7675;SDS011;3880;51.464;-2.566;2022-10-15T09:47:14;6.30;;;1.93;;
7675;SDS011;3880;51.464;-2.566;2022-10-15T09:49:43;9.77;;;3.10;;
7675;SDS011;3880;51.464;-2.566;2022-10-15T09:52:12;12.33;;;2.67;;
7675;SDS011;3880;51.464;-2.566;2022-10-15T09:54:49;9.90;;;2.00;;
7675;SDS011;3880;51.464;-2.566;2022-10-15T09:57:21;9.30;;;2.47;;
7675;SDS011;3880;51.464;-2.566;2022-10-15T09:59:51;11.47;;;2.60;;
7675;SDS011;3880;51.464;-2.566;2022-10-15T10:02:19;5.00;;;2.00;;
7675;SDS011;3880;51.464;-2.566;2022-10-15T10:04:48;7.00;;;3.10;;
7675;SDS011;3880;51.464;-2.566;2022-10-15T10:07:29;5.03;;;2.30;;
7675;SDS011;3880;51.464;-2.566;2022-10-15T10:10:01;9.60;;;2.10;;
7675;SDS011;3880;51.464;-2.566;2022-10-15T10:12:31;6.30;;;2.60;;
7675;SDS011;3880;51.464;-2.566;2022-10-15T10:15:02;10.20;;;2.53;;
7675;SDS011;3880;51.464;-2.566;2022-10-15T10:17:31;5.43;;;2.30;;
7675;SDS011;3880;51.464;-2.566;2022-10-15T10:20:03;4.73;;;1.77;;
7675;SDS011;3880;51.464;-2.566;2022-10-15T10:22:43;3.28;;;1.75;;
7675;SDS011;3880;51.464;-2.566;2022-10-15T10:25:26;4.35;;;1.85;;
7675;SDS011;3880;51.464;-2.566;2022-10-15T10:28:04;8.32;;;2.08;;
7675;SDS011;3880;51.464;-2.566;2022-10-15T10:30:46;5.13;;;1.92;;
7675;SDS011;3880;51.464;-2.566;2022-10-15T10:33:19;5.18;;;1.50;;
7675;SDS011;3880;51.464;-2.566;2022-10-15T10:35:51;8.55;;;2.38;;
7675;SDS011;3880;51.464;-2.566;2022-10-15T10:38:19;2.15;;;1.40;;
7675;SDS011;3880;51.464;-2.566;2022-10-15T10:40:52;6.53;;;1.90;;
7675;SDS011;3880;51.464;-2.566;2022-10-15T10:43:25;3.60;;;1.77;;
7675;SDS011;3880;51.464;-2.566;2022-10-15T10:45:54;5.13;;;1.90;;
7675;SDS011;3880;51.464;-2.566;2022-10-15T10:48:24;5.72;;;2.00;;
7675;SDS011;3880;51.464;-2.566;2022-10-15T10:51:03;11.23;;;2.33;;
7675;SDS011;3880;51.464;-2.566;2022-10-15T10:53:33;8.13;;;1.98;;
7675;SDS011;3880;51.464;-2.566;2022-10-15T10:56:06;5.75;;;2.33;;
7675;SDS011;3880;51.464;-2.566;2022-10-15T10:58:37;6.03;;;2.00;;
7675;SDS011;3880;51.464;-2.566;2022-10-15T11:01:04;8.85;;;3.92;;
7675;SDS011;3880;51.464;-2.566;2022-10-15T11:03:33;6.85;;;2.13;;
7675;SDS011;3880;51.464;-2.566;2022-10-15T11:06:06;7.80;;;2.30;;
7675;SDS011;3880;51.464;-2.566;2022-10-15T11:09:00;5.85;;;2.10;;
7675;SDS011;3880;51.464;-2.566;2022-10-15T11:11:39;10.00;;;2.70;;
7675;SDS011;3880;51.464;-2.566;2022-10-15T11:14:11;11.45;;;3.00;;
7675;SDS011;3880;51.464;-2.566;2022-10-15T11:16:44;10.68;;;2.33;;
7675;SDS011;3880;51.464;-2.566;2022-10-15T11:19:22;11.27;;;2.77;;
7675;SDS011;3880;51.464;-2.566;2022-10-15T11:22:05;6.13;;;2.50;;
7675;SDS011;3880;51.464;-2.566;2022-10-15T11:24:45;5.00;;;2.17;;
7675;SDS011;3880;51.464;-2.566;2022-10-15T11:27:30;7.37;;;2.47;;
7675;SDS011;3880;51.464;-2.566;2022-10-15T11:30:09;5.57;;;2.10;;
7675;SDS011;3880;51.464;-2.566;2022-10-15T11:32:56;4.13;;;1.63;;
7675;SDS011;3880;51.464;-2.566;2022-10-15T11:35:33;5.27;;;1.97;;
7675;SDS011;3880;51.464;-2.566;2022-10-15T11:38:11;5.23;;;1.90;;
7675;SDS011;3880;51.464;-2.566;2022-10-15T11:40:48;2.83;;;1.67;;
7675;SDS011;3880;51.464;-2.566;2022-10-15T11:43:31;6.60;;;1.77;;
7675;SDS011;3880;51.464;-2.566;2022-10-15T11:46:10;6.63;;;2.42;;
7675;SDS011;3880;51.464;-2.566;2022-10-15T11:48:46;4.97;;;1.93;;
7675;SDS011;3880;51.464;-2.566;2022-10-15T11:51:28;12.47;;;2.33;;
7675;SDS011;3880;51.464;-2.566;2022-10-15T11:54:11;6.63;;;2.20;;
7675;SDS011;3880;51.464;-2.566;2022-10-15T11:56:47;8.47;;;2.70;;
7675;SDS011;3880;51.464;-2.566;2022-10-15T11:59:31;6.00;;;2.43;;
7675;SDS011;3880;51.464;-2.566;2022-10-15T12:02:04;5.10;;;2.23;;
7675;SDS011;3880;51.464;-2.566;2022-10-15T12:04:38;6.47;;;2.40;;
7675;SDS011;3880;51.464;-2.566;2022-10-15T12:07:11;10.07;;;3.13;;
7675;SDS011;3880;51.464;-2.566;2022-10-15T12:09:42;10.30;;;3.37;;
7675;SDS011;3880;51.464;-2.566;2022-10-15T12:12:16;11.07;;;2.87;;
7675;SDS011;3880;51.464;-2.566;2022-10-15T12:14:55;7.30;;;3.43;;
7675;SDS011;3880;51.464;-2.566;2022-10-15T12:17:35;7.37;;;2.20;;
7675;SDS011;3880;51.464;-2.566;2022-10-15T12:20:12;6.83;;;2.40;;
7675;SDS011;3880;51.464;-2.566;2022-10-15T12:22:52;9.23;;;3.13;;
7675;SDS011;3880;51.464;-2.566;2022-10-15T12:28:15;7.47;;;2.28;;
7675;SDS011;3880;51.464;-2.566;2022-10-15T12:31:01;7.15;;;2.90;;
7675;SDS011;3880;51.464;-2.566;2022-10-15T12:33:31;8.60;;;2.70;;
7675;SDS011;3880;51.464;-2.566;2022-10-15T12:36:00;7.80;;;2.70;;
7675;SDS011;3880;51.464;-2.566;2022-10-15T12:38:34;7.75;;;2.75;;
7675;SDS011;3880;51.464;-2.566;2022-10-15T12:41:04;9.47;;;3.20;;
7675;SDS011;3880;51.464;-2.566;2022-10-15T12:43:34;6.50;;;2.73;;
7675;SDS011;3880;51.464;-2.566;2022-10-15T12:46:06;15.30;;;3.07;;
7675;SDS011;3880;51.464;-2.566;2022-10-15T12:48:36;8.47;;;2.77;;
7675;SDS011;3880;51.464;-2.566;2022-10-15T12:53:56;9.40;;;3.05;;
7675;SDS011;3880;51.464;-2.566;2022-10-15T12:56:34;10.35;;;3.30;;
7675;SDS011;3880;51.464;-2.566;2022-10-15T12:59:03;13.55;;;3.03;;
7675;SDS011;3880;51.464;-2.566;2022-10-15T13:01:51;10.77;;;3.10;;
7675;SDS011;3880;51.464;-2.566;2022-10-15T13:04:18;11.55;;;3.25;;
7675;SDS011;3880;51.464;-2.566;2022-10-15T13:06:46;14.93;;;4.30;;
7675;SDS011;3880;51.464;-2.566;2022-10-15T13:11:58;12.95;;;3.88;;
7675;SDS011;3880;51.464;-2.566;2022-10-15T13:14:30;9.88;;;2.60;;
7675;SDS011;3880;51.464;-2.566;2022-10-15T13:17:03;7.57;;;2.88;;
7675;SDS011;3880;51.464;-2.566;2022-10-15T13:19:39;8.03;;;3.00;;
7675;SDS011;3880;51.464;-2.566;2022-10-15T13:22:19;12.93;;;3.77;;
7675;SDS011;3880;51.464;-2.566;2022-10-15T13:24:47;8.67;;;3.17;;
7675;SDS011;3880;51.464;-2.566;2022-10-15T13:27:18;13.70;;;3.47;;
7675;SDS011;3880;51.464;-2.566;2022-10-15T13:29:52;8.83;;;2.63;;
7675;SDS011;3880;51.464;-2.566;2022-10-15T13:32:22;9.17;;;3.30;;
7675;SDS011;3880;51.464;-2.566;2022-10-15T13:34:50;9.57;;;2.60;;
7675;SDS011;3880;51.464;-2.566;2022-10-15T13:37:19;10.90;;;3.67;;
7675;SDS011;3880;51.464;-2.566;2022-10-15T13:39:50;10.43;;;3.10;;
7675;SDS011;3880;51.464;-2.566;2022-10-15T13:42:18;21.60;;;3.63;;
7675;SDS011;3880;51.464;-2.566;2022-10-15T13:44:55;8.30;;;3.70;;
7675;SDS011;3880;51.464;-2.566;2022-10-15T13:47:25;9.30;;;3.38;;
7675;SDS011;3880;51.464;-2.566;2022-10-15T13:50:11;9.60;;;2.72;;
7675;SDS011;3880;51.464;-2.566;2022-10-15T13:52:40;8.15;;;3.13;;
7675;SDS011;3880;51.464;-2.566;2022-10-15T13:55:13;7.70;;;3.08;;
7675;SDS011;3880;51.464;-2.566;2022-10-15T13:57:47;14.27;;;2.70;;
7675;SDS011;3880;51.464;-2.566;2022-10-15T14:00:19;11.07;;;3.10;;
7675;SDS011;3880;51.464;-2.566;2022-10-15T14:05:50;10.98;;;3.10;;
7675;SDS011;3880;51.464;-2.566;2022-10-15T14:08:19;8.25;;;2.80;;
7675;SDS011;3880;51.464;-2.566;2022-10-15T14:10:48;12.52;;;3.60;;
7675;SDS011;3880;51.464;-2.566;2022-10-15T14:13:17;13.52;;;3.15;;
7675;SDS011;3880;51.464;-2.566;2022-10-15T14:15:46;8.13;;;2.70;;
7675;SDS011;3880;51.464;-2.566;2022-10-15T14:18:24;7.28;;;2.65;;
7675;SDS011;3880;51.464;-2.566;2022-10-15T14:20:59;11.40;;;3.00;;
7675;SDS011;3880;51.464;-2.566;2022-10-15T14:23:26;11.00;;;3.03;;
7675;SDS011;3880;51.464;-2.566;2022-10-15T14:25:55;12.60;;;3.70;;
7675;SDS011;3880;51.464;-2.566;2022-10-15T14:28:24;7.78;;;2.53;;
7675;SDS011;3880;51.464;-2.566;2022-10-15T14:30:52;12.13;;;3.13;;
7675;SDS011;3880;51.464;-2.566;2022-10-15T14:33:33;7.03;;;2.33;;
7675;SDS011;3880;51.464;-2.566;2022-10-15T14:36:10;10.15;;;3.45;;
7675;SDS011;3880;51.464;-2.566;2022-10-15T14:38:39;9.77;;;3.10;;
7675;SDS011;3880;51.464;-2.566;2022-10-15T14:41:19;9.50;;;3.37;;
7675;SDS011;3880;51.464;-2.566;2022-10-15T14:46:43;14.43;;;2.70;;
7675;SDS011;3880;51.464;-2.566;2022-10-15T14:49:19;10.70;;;2.90;;
7675;SDS011;3880;51.464;-2.566;2022-10-15T14:51:55;6.77;;;2.80;;
7675;SDS011;3880;51.464;-2.566;2022-10-15T14:54:25;13.17;;;3.33;;
7675;SDS011;3880;51.464;-2.566;2022-10-15T14:56:57;6.50;;;2.40;;
7675;SDS011;3880;51.464;-2.566;2022-10-15T14:59:27;16.23;;;3.57;;
7675;SDS011;3880;51.464;-2.566;2022-10-15T15:01:59;6.27;;;3.03;;
7675;SDS011;3880;51.464;-2.566;2022-10-15T15:04:34;9.10;;;3.03;;
7675;SDS011;3880;51.464;-2.566;2022-10-15T15:07:16;7.93;;;3.00;;
7675;SDS011;3880;51.464;-2.566;2022-10-15T15:09:48;9.90;;;2.80;;
7675;SDS011;3880;51.464;-2.566;2022-10-15T15:12:17;7.57;;;2.67;;
7675;SDS011;3880;51.464;-2.566;2022-10-15T15:14:47;9.30;;;2.77;;
7675;SDS011;3880;51.464;-2.566;2022-10-15T15:17:15;9.63;;;3.03;;
7675;SDS011;3880;51.464;-2.566;2022-10-15T15:19:44;19.03;;;3.50;;
7675;SDS011;3880;51.464;-2.566;2022-10-15T15:22:12;13.30;;;2.83;;
7675;SDS011;3880;51.464;-2.566;2022-10-15T15:24:43;6.10;;;2.57;;
7675;SDS011;3880;51.464;-2.566;2022-10-15T15:27:16;23.13;;;3.67;;
7675;SDS011;3880;51.464;-2.566;2022-10-15T15:29:50;11.80;;;2.80;;
7675;SDS011;3880;51.464;-2.566;2022-10-15T15:32:18;15.90;;;4.17;;
7675;SDS011;3880;51.464;-2.566;2022-10-15T15:34:47;15.23;;;2.87;;
7675;SDS011;3880;51.464;-2.566;2022-10-15T15:37:17;8.20;;;3.40;;
7675;SDS011;3880;51.464;-2.566;2022-10-15T15:39:45;12.73;;;3.27;;
7675;SDS011;3880;51.464;-2.566;2022-10-15T15:42:13;9.07;;;3.20;;
7675;SDS011;3880;51.464;-2.566;2022-10-15T15:44:42;11.47;;;3.70;;
7675;SDS011;3880;51.464;-2.566;2022-10-15T15:47:09;18.20;;;3.30;;
7675;SDS011;3880;51.464;-2.566;2022-10-15T15:49:39;11.97;;;3.27;;
7675;SDS011;3880;51.464;-2.566;2022-10-15T15:52:06;12.50;;;3.70;;
7675;SDS011;3880;51.464;-2.566;2022-10-15T15:54:39;11.47;;;2.37;;
7675;SDS011;3880;51.464;-2.566;2022-10-15T15:57:08;11.20;;;3.83;;